createdAt,value
2022-08-17T00:02:25.401Z,30.99
2022-08-17T00:07:28.463Z,31.34
2022-08-17T00:12:42.885Z,31.18
2022-08-17T00:17:48.314Z,31.61
2022-08-17T00:22:50.540Z,31.63
2022-08-17T00:27:52.296Z,31.49
2022-08-17T00:33:14.104Z,31.56
2022-08-17T00:38:19.221Z,31.69
2022-08-17T00:43:38.910Z,31.90
2022-08-17T00:48:42.320Z,31.80
2022-08-17T00:53:49.900Z,32.12
2022-08-17T00:58:54.455Z,32.29
2022-08-17T01:03:57.436Z,32.22
2022-08-17T01:09:03.589Z,32.32
2022-08-17T01:14:05.268Z,32.39
2022-08-17T01:19:16.243Z,32.33
2022-08-17T01:24:18.659Z,32.40
2022-08-17T01:29:23.036Z,32.56
2022-08-17T01:34:25.046Z,32.34
2022-08-17T01:39:56.062Z,32.66
2022-08-17T01:45:02.732Z,32.66
2022-08-17T01:50:16.035Z,32.90
2022-08-17T01:55:27.237Z,32.91
2022-08-17T02:00:47.798Z,33.16
2022-08-17T02:05:53.352Z,33.18
2022-08-17T02:10:55.622Z,33.42
2022-08-17T02:15:59.648Z,33.61
2022-08-17T02:21:02.570Z,33.52
2022-08-17T02:26:05.189Z,33.51
2022-08-17T02:31:11.173Z,33.63
2022-08-17T02:36:13.921Z,33.76
2022-08-17T02:41:15.789Z,33.89
2022-08-17T02:46:17.442Z,33.98
2022-08-17T02:51:19.135Z,34.08
2022-08-17T02:56:20.853Z,34.13
2022-08-17T03:01:22.535Z,34.25
2022-08-17T03:06:24.229Z,34.34
2022-08-17T03:11:25.811Z,34.41
2022-08-17T03:16:27.614Z,34.46
2022-08-17T03:21:29.226Z,34.51
2022-08-17T03:26:32.041Z,34.82
2022-08-17T03:31:33.655Z,34.98
2022-08-17T03:36:38.858Z,34.84
2022-08-17T03:41:40.513Z,35.22
2022-08-17T03:47:01.029Z,35.08
2022-08-17T03:52:22.079Z,35.26
2022-08-17T03:57:25.109Z,35.42
2022-08-17T04:02:32.560Z,35.37
2022-08-17T04:07:34.261Z,35.59
2022-08-17T04:12:49.694Z,35.59
2022-08-17T04:17:52.543Z,35.80
2022-08-17T04:23:09.965Z,35.78
2022-08-17T04:28:15.779Z,36.09
2022-08-17T04:33:21.907Z,36.13
2022-08-17T04:38:27.377Z,36.25
2022-08-17T04:43:31.050Z,36.34
2022-08-17T04:48:37.568Z,36.21
2022-08-17T04:53:42.094Z,36.45
2022-08-17T04:58:46.007Z,36.56
2022-08-17T05:03:47.768Z,36.54
2022-08-17T05:08:49.698Z,36.90
2022-08-17T05:13:51.587Z,36.78
2022-08-17T05:18:53.444Z,36.85
2022-08-17T05:23:58.518Z,36.87
2022-08-17T05:29:02.559Z,36.88
2022-08-17T05:34:04.718Z,37.00
2022-08-17T05:39:06.636Z,37.12
2022-08-17T05:44:08.232Z,37.16
2022-08-17T05:49:19.048Z,37.35
2022-08-17T05:54:39.596Z,37.35
2022-08-17T06:00:15.933Z,37.18
2022-08-17T06:05:50.471Z,37.42
2022-08-17T06:10:55.125Z,37.20
2022-08-17T06:16:33.829Z,37.32
2022-08-17T06:21:37.580Z,37.39
2022-08-17T06:26:45.487Z,37.22
2022-08-17T06:31:47.302Z,37.35
2022-08-17T06:37:25.687Z,37.18
2022-08-17T06:43:05.792Z,37.08
2022-08-17T06:48:25.713Z,37.01
2022-08-17T06:53:35.777Z,37.11
2022-08-17T06:58:40.429Z,36.82
2022-08-17T07:04:11.551Z,36.59
2022-08-17T07:09:31.441Z,36.57
2022-08-17T07:14:48.927Z,36.39
2022-08-17T07:20:08.875Z,36.11
2022-08-17T07:25:18.625Z,36.12
2022-08-17T07:30:45.661Z,35.90
2022-08-17T07:35:50.261Z,35.81
2022-08-17T07:40:58.236Z,35.80
2022-08-17T07:46:21.443Z,35.16
2022-08-17T07:51:26.076Z,35.43
2022-08-17T07:56:37.939Z,35.11
2022-08-17T08:01:42.002Z,34.50
2022-08-17T08:06:52.792Z,34.50
2022-08-17T08:11:54.447Z,34.59
2022-08-17T08:17:10.213Z,34.08
2022-08-17T08:22:22.291Z,34.50
2022-08-17T08:27:45.938Z,33.91
2022-08-17T08:32:54.155Z,33.69
2022-08-17T08:38:20.122Z,33.45
2022-08-17T08:43:36.185Z,33.54
2022-08-17T08:49:10.143Z,33.31
2022-08-17T08:54:26.711Z,33.11
2022-08-17T08:59:57.713Z,32.90
2022-08-17T09:05:22.050Z,32.79
2022-08-17T09:10:49.673Z,32.37
2022-08-17T09:22:12.547Z,31.83
2022-08-17T09:27:22.655Z,31.76
2022-08-17T09:32:41.494Z,31.15
2022-08-17T09:38:23.682Z,31.38
2022-08-17T09:43:41.273Z,30.86
2022-08-17T09:49:01.858Z,30.74
2022-08-17T09:54:21.350Z,30.25
2022-08-17T09:59:38.385Z,29.92
2022-08-17T10:05:07.488Z,29.86
2022-08-17T10:10:25.642Z,29.42
2022-08-17T10:16:08.129Z,29.30
2022-08-17T10:21:33.959Z,28.78
2022-08-17T10:26:40.369Z,28.05
2022-08-17T10:32:09.214Z,28.05
2022-08-17T10:37:20.040Z,28.22
2022-08-17T10:42:34.087Z,27.71
2022-08-17T10:47:56.080Z,27.86
2022-08-17T10:52:59.531Z,26.60
2022-08-17T10:58:21.088Z,27.42
2022-08-17T11:03:25.292Z,25.94
2022-08-17T11:08:45.777Z,26.20
2022-08-17T11:14:17.094Z,25.55
2022-08-17T11:19:38.998Z,25.75
2022-08-17T11:24:45.639Z,24.75
2022-08-17T11:29:59.480Z,24.98
2022-08-17T11:35:20.001Z,25.37
2022-08-17T11:40:41.587Z,24.40
2022-08-17T11:46:13.961Z,24.37
2022-08-17T11:51:33.865Z,24.30
2022-08-17T11:56:38.800Z,23.97
2022-08-17T12:02:01.931Z,23.51
2022-08-17T12:07:08.807Z,23.40
2022-08-17T12:12:14.688Z,23.29
2022-08-17T12:17:40.658Z,22.93
2022-08-17T12:23:10.265Z,22.69
2022-08-17T12:28:29.517Z,22.52
2022-08-17T12:33:31.730Z,21.95
2022-08-17T12:38:36.529Z,21.35
2022-08-17T12:43:38.395Z,21.72
2022-08-17T12:48:40.108Z,21.48
2022-08-17T12:54:02.294Z,21.48
2022-08-17T12:59:04.143Z,20.90
2022-08-17T13:04:06.614Z,20.43
2022-08-17T13:09:19.865Z,20.35
2022-08-17T13:14:22.074Z,19.93
2022-08-17T13:19:29.857Z,19.74
2022-08-17T13:24:57.543Z,20.76
2022-08-17T13:30:01.288Z,20.42
2022-08-17T13:35:29.492Z,20.57
2022-08-17T13:40:50.179Z,19.70
2022-08-17T13:45:53.062Z,20.52
2022-08-17T13:50:54.633Z,20.67
2022-08-17T13:56:37.370Z,20.47
2022-08-17T14:01:42.641Z,20.24
2022-08-17T14:06:52.275Z,20.12
2022-08-17T14:11:57.575Z,19.84
2022-08-17T14:16:59.429Z,19.84
2022-08-17T14:22:01.780Z,19.01
2022-08-17T14:27:06.874Z,19.04
2022-08-17T14:32:23.037Z,18.91
2022-08-17T14:37:28.039Z,19.04
2022-08-17T14:42:33.022Z,18.25
2022-08-17T14:47:37.125Z,18.19
2022-08-17T14:52:43.001Z,18.56
2022-08-17T14:57:45.647Z,18.40
2022-08-17T15:02:56.292Z,18.54
2022-08-17T15:07:59.396Z,18.61
2022-08-17T15:13:01.191Z,18.34
2022-08-17T15:18:03.373Z,18.28
2022-08-17T15:23:07.288Z,18.00
2022-08-17T15:28:08.985Z,18.66
2022-08-17T15:33:17.597Z,17.63
2022-08-17T15:38:19.778Z,17.67
2022-08-17T15:43:27.854Z,17.75
2022-08-17T15:48:41.826Z,17.76
2022-08-17T15:53:46.833Z,18.22
2022-08-17T15:58:49.306Z,17.63
2022-08-17T16:04:04.518Z,17.66
2022-08-17T16:09:08.443Z,17.50
2022-08-17T16:14:10.342Z,17.70
2022-08-17T16:19:15.505Z,17.55
2022-08-17T16:24:17.177Z,17.54
2022-08-17T16:29:18.794Z,17.54
2022-08-17T16:34:21.668Z,17.54
2022-08-17T16:39:29.277Z,17.54
2022-08-17T16:44:32.611Z,17.89
2022-08-17T16:49:37.427Z,17.89
2022-08-17T16:54:43.771Z,18.12
2022-08-17T16:59:50.424Z,18.12
2022-08-17T17:05:02.928Z,18.48
2022-08-17T17:10:12.515Z,18.38
2022-08-17T17:15:20.078Z,19.02
2022-08-17T17:20:28.630Z,19.38
2022-08-17T17:25:57.530Z,19.49
2022-08-17T17:31:05.251Z,19.63
2022-08-17T17:36:29.068Z,19.88
2022-08-17T17:41:41.967Z,19.66
2022-08-17T17:46:50.678Z,20.04
2022-08-17T17:52:05.884Z,20.29
2022-08-17T17:57:17.847Z,20.03
2022-08-17T18:03:01.180Z,20.04
2022-08-17T18:08:34.743Z,20.29
2022-08-17T18:13:53.325Z,20.14
2022-08-17T18:18:57.978Z,20.63
2022-08-17T18:24:02.198Z,20.91
2022-08-17T18:29:22.782Z,20.97
2022-08-17T18:34:47.677Z,21.43
2022-08-17T18:39:49.831Z,21.19
2022-08-17T18:44:55.054Z,21.52
2022-08-17T18:50:18.515Z,22.01
2022-08-17T18:55:28.526Z,22.08
2022-08-17T19:00:38.205Z,22.05
2022-08-17T19:05:43.393Z,22.02
2022-08-17T19:10:47.354Z,21.89
2022-08-17T19:16:11.795Z,22.27
2022-08-17T19:21:23.034Z,22.25
2022-08-17T19:26:54.451Z,22.15
2022-08-17T19:31:58.864Z,22.42
2022-08-17T19:37:09.822Z,22.33
2022-08-17T19:42:18.090Z,22.53
2022-08-17T19:47:54.936Z,22.12
2022-08-17T19:53:18.790Z,22.22
2022-08-17T19:58:48.934Z,22.31
2022-08-17T20:04:20.657Z,22.73
2022-08-17T20:09:34.970Z,23.00
2022-08-17T20:14:55.354Z,22.46
2022-08-17T20:20:20.218Z,23.13
2022-08-17T20:25:35.392Z,22.74
2022-08-17T20:30:42.545Z,23.14
2022-08-17T20:36:02.387Z,23.22
2022-08-17T20:41:04.044Z,23.41
2022-08-17T20:46:28.188Z,23.32
2022-08-17T20:51:34.767Z,23.67
2022-08-17T20:56:43.274Z,23.83
2022-08-17T21:02:17.608Z,23.72
2022-08-17T21:07:42.634Z,24.09
2022-08-17T21:13:23.046Z,23.98
2022-08-17T21:18:48.522Z,23.91
2022-08-17T21:24:20.228Z,24.02
2022-08-17T21:29:32.465Z,24.56
2022-08-17T21:34:42.631Z,24.52
2022-08-17T21:39:49.210Z,24.58
2022-08-17T21:44:57.980Z,24.74
2022-08-17T21:50:19.836Z,24.82
2022-08-17T21:55:29.872Z,25.10
2022-08-17T22:00:32.908Z,25.36
2022-08-17T22:05:37.865Z,25.30
2022-08-17T22:10:44.539Z,25.33
2022-08-17T22:15:49.695Z,25.10
2022-08-17T22:20:55.380Z,25.06
2022-08-17T22:26:09.581Z,25.28
2022-08-17T22:31:20.704Z,25.41
2022-08-17T22:36:24.663Z,25.53
2022-08-17T22:41:39.097Z,25.40
2022-08-17T22:46:50.824Z,25.20
2022-08-17T22:52:01.727Z,25.42
2022-08-17T22:57:23.508Z,25.72
2022-08-17T23:02:28.720Z,25.75
2022-08-17T23:07:30.371Z,25.77
2022-08-17T23:12:33.267Z,25.93
2022-08-17T23:17:37.425Z,25.98
2022-08-17T23:22:51.776Z,26.21
2022-08-17T23:27:55.762Z,26.30
2022-08-17T23:33:01.527Z,26.28
2022-08-17T23:38:03.232Z,26.17
2022-08-17T23:43:24.021Z,26.25
2022-08-17T23:48:36.290Z,26.17
2022-08-17T23:53:42.880Z,26.55
2022-08-17T23:58:44.923Z,26.71
